sensor_id;sensor_type;location;lat;lon;timestamp;P1;durP1;ratioP1;P2;durP2;ratioP2
77722;SDS011;67811;42.656;23.394;2023-04-03T00:00:33;2.22;;;1.38;;
77722;SDS011;67811;42.656;23.394;2023-04-03T00:03:04;2.40;;;1.60;;
77722;SDS011;67811;42.656;23.394;2023-04-03T00:05:35;2.42;;;1.30;;
77722;SDS011;67811;42.656;23.394;2023-04-03T00:08:05;2.95;;;1.23;;
77722;SDS011;67811;42.656;23.394;2023-04-03T00:10:36;5.00;;;2.15;;
77722;SDS011;67811;42.656;23.394;2023-04-03T00:13:08;2.53;;;0.98;;
77722;SDS011;67811;42.656;23.394;2023-04-03T00:15:39;0.82;;;0.82;;
77722;SDS011;67811;42.656;23.394;2023-04-03T00:18:10;2.03;;;1.27;;
77722;SDS011;67811;42.656;23.394;2023-04-03T00:20:41;1.63;;;0.93;;
77722;SDS011;67811;42.656;23.394;2023-04-03T00:23:11;4.88;;;1.13;;
77722;SDS011;67811;42.656;23.394;2023-04-03T00:25:42;1.10;;;1.00;;
77722;SDS011;67811;42.656;23.394;2023-04-03T00:28:14;2.50;;;1.58;;
77722;SDS011;67811;42.656;23.394;2023-04-03T00:30:45;0.82;;;0.57;;
77722;SDS011;67811;42.656;23.394;2023-04-03T00:33:16;1.33;;;0.82;;
77722;SDS011;67811;42.656;23.394;2023-04-03T00:35:47;0.63;;;0.63;;
77722;SDS011;67811;42.656;23.394;2023-04-03T00:38:17;1.63;;;1.13;;
77722;SDS011;67811;42.656;23.394;2023-04-03T00:40:48;1.17;;;1.05;;
77722;SDS011;67811;42.656;23.394;2023-04-03T00:43:22;2.10;;;0.98;;
77722;SDS011;67811;42.656;23.394;2023-04-03T00:45:54;1.77;;;0.88;;
77722;SDS011;67811;42.656;23.394;2023-04-03T00:48:26;3.90;;;0.80;;
77722;SDS011;67811;42.656;23.394;2023-04-03T00:51:00;0.88;;;0.73;;
77722;SDS011;67811;42.656;23.394;2023-04-03T00:53:33;3.60;;;1.60;;
77722;SDS011;67811;42.656;23.394;2023-04-03T00:56:08;1.52;;;1.20;;
77722;SDS011;67811;42.656;23.394;2023-04-03T00:58:43;1.15;;;0.68;;
77722;SDS011;67811;42.656;23.394;2023-04-03T01:01:18;0.80;;;0.80;;
77722;SDS011;67811;42.656;23.394;2023-04-03T01:03:52;0.88;;;0.85;;
77722;SDS011;67811;42.656;23.394;2023-04-03T01:06:24;1.33;;;0.80;;
77722;SDS011;67811;42.656;23.394;2023-04-03T01:08:57;0.88;;;0.88;;
77722;SDS011;67811;42.656;23.394;2023-04-03T01:11:28;1.17;;;0.60;;
77722;SDS011;67811;42.656;23.394;2023-04-03T01:14:00;1.95;;;0.93;;
77722;SDS011;67811;42.656;23.394;2023-04-03T01:16:31;1.17;;;0.85;;
77722;SDS011;67811;42.656;23.394;2023-04-03T01:19:02;0.45;;;0.45;;
77722;SDS011;67811;42.656;23.394;2023-04-03T01:24:40;0.90;;;0.52;;
77722;SDS011;67811;42.656;23.394;2023-04-03T01:27:11;1.42;;;0.90;;
77722;SDS011;67811;42.656;23.394;2023-04-03T01:29:43;0.40;;;0.40;;
77722;SDS011;67811;42.656;23.394;2023-04-03T01:32:16;1.30;;;0.95;;
77722;SDS011;67811;42.656;23.394;2023-04-03T01:34:46;1.48;;;0.77;;
77722;SDS011;67811;42.656;23.394;2023-04-03T01:37:17;1.75;;;1.17;;
77722;SDS011;67811;42.656;23.394;2023-04-03T01:39:47;0.85;;;0.70;;
77722;SDS011;67811;42.656;23.394;2023-04-03T01:42:18;1.02;;;0.57;;
77722;SDS011;67811;42.656;23.394;2023-04-03T01:44:48;1.10;;;1.00;;
77722;SDS011;67811;42.656;23.394;2023-04-03T01:47:20;0.70;;;0.70;;
77722;SDS011;67811;42.656;23.394;2023-04-03T01:49:51;2.08;;;1.08;;
77722;SDS011;67811;42.656;23.394;2023-04-03T01:52:22;1.00;;;0.85;;
77722;SDS011;67811;42.656;23.394;2023-04-03T01:54:53;2.33;;;1.45;;
77722;SDS011;67811;42.656;23.394;2023-04-03T01:57:23;1.20;;;1.10;;
77722;SDS011;67811;42.656;23.394;2023-04-03T01:59:55;1.23;;;1.13;;
77722;SDS011;67811;42.656;23.394;2023-04-03T02:02:27;0.52;;;0.45;;
77722;SDS011;67811;42.656;23.394;2023-04-03T02:04:57;0.77;;;0.77;;
77722;SDS011;67811;42.656;23.394;2023-04-03T02:07:28;0.50;;;0.50;;
77722;SDS011;67811;42.656;23.394;2023-04-03T02:09:58;0.80;;;0.80;;
77722;SDS011;67811;42.656;23.394;2023-04-03T02:12:29;0.70;;;0.70;;
77722;SDS011;67811;42.656;23.394;2023-04-03T02:14:59;1.88;;;0.77;;
77722;SDS011;67811;42.656;23.394;2023-04-03T02:17:32;2.35;;;0.88;;
77722;SDS011;67811;42.656;23.394;2023-04-03T02:20:02;1.52;;;1.10;;
77722;SDS011;67811;42.656;23.394;2023-04-03T02:22:34;0.30;;;0.30;;
77722;SDS011;67811;42.656;23.394;2023-04-03T02:25:05;1.70;;;0.60;;
77722;SDS011;67811;42.656;23.394;2023-04-03T02:27:35;1.10;;;1.08;;
77722;SDS011;67811;42.656;23.394;2023-04-03T02:30:06;1.08;;;0.98;;
77722;SDS011;67811;42.656;23.394;2023-04-03T02:32:39;1.25;;;0.82;;
77722;SDS011;67811;42.656;23.394;2023-04-03T02:35:09;2.50;;;1.08;;
77722;SDS011;67811;42.656;23.394;2023-04-03T02:37:40;1.23;;;0.82;;
77722;SDS011;67811;42.656;23.394;2023-04-03T02:40:11;0.95;;;0.85;;
77722;SDS011;67811;42.656;23.394;2023-04-03T02:42:42;1.83;;;1.27;;
77722;SDS011;67811;42.656;23.394;2023-04-03T02:45:12;1.98;;;1.40;;
77722;SDS011;67811;42.656;23.394;2023-04-03T02:47:44;1.25;;;0.80;;
77722;SDS011;67811;42.656;23.394;2023-04-03T02:50:15;6.43;;;1.77;;
77722;SDS011;67811;42.656;23.394;2023-04-03T02:52:45;1.33;;;0.75;;
77722;SDS011;67811;42.656;23.394;2023-04-03T02:55:16;1.25;;;1.13;;
77722;SDS011;67811;42.656;23.394;2023-04-03T02:57:47;1.08;;;0.98;;
77722;SDS011;67811;42.656;23.394;2023-04-03T03:00:18;3.05;;;1.60;;
77722;SDS011;67811;42.656;23.394;2023-04-03T03:02:50;1.63;;;1.10;;
77722;SDS011;67811;42.656;23.394;2023-04-03T03:05:21;0.77;;;0.68;;
77722;SDS011;67811;42.656;23.394;2023-04-03T03:07:51;0.82;;;0.68;;
77722;SDS011;67811;42.656;23.394;2023-04-03T03:10:22;1.15;;;1.02;;
77722;SDS011;67811;42.656;23.394;2023-04-03T03:12:53;1.38;;;1.08;;
77722;SDS011;67811;42.656;23.394;2023-04-03T03:15:24;0.75;;;0.70;;
77722;SDS011;67811;42.656;23.394;2023-04-03T03:17:56;1.15;;;1.02;;
77722;SDS011;67811;42.656;23.394;2023-04-03T03:20:26;1.92;;;1.83;;
77722;SDS011;67811;42.656;23.394;2023-04-03T03:22:57;0.63;;;0.60;;
77722;SDS011;67811;42.656;23.394;2023-04-03T03:25:27;1.02;;;0.90;;
77722;SDS011;67811;42.656;23.394;2023-04-03T03:27:58;2.40;;;1.08;;
77722;SDS011;67811;42.656;23.394;2023-04-03T03:30:29;1.17;;;1.08;;
77722;SDS011;67811;42.656;23.394;2023-04-03T03:33:01;1.20;;;1.10;;
77722;SDS011;67811;42.656;23.394;2023-04-03T03:35:32;0.55;;;0.55;;
77722;SDS011;67811;42.656;23.394;2023-04-03T03:38:02;1.30;;;1.15;;
77722;SDS011;67811;42.656;23.394;2023-04-03T03:40:33;2.08;;;0.85;;
77722;SDS011;67811;42.656;23.394;2023-04-03T03:43:03;0.98;;;0.98;;
77722;SDS011;67811;42.656;23.394;2023-04-03T03:45:34;1.85;;;0.80;;
77722;SDS011;67811;42.656;23.394;2023-04-03T03:48:06;0.68;;;0.68;;
77722;SDS011;67811;42.656;23.394;2023-04-03T03:50:37;3.30;;;1.10;;
77722;SDS011;67811;42.656;23.394;2023-04-03T03:53:07;2.33;;;1.17;;
77722;SDS011;67811;42.656;23.394;2023-04-03T03:55:38;0.52;;;0.52;;
77722;SDS011;67811;42.656;23.394;2023-04-03T03:58:08;3.30;;;0.68;;
77722;SDS011;67811;42.656;23.394;2023-04-03T04:00:39;0.98;;;0.88;;
77722;SDS011;67811;42.656;23.394;2023-04-03T04:03:11;0.98;;;0.88;;
77722;SDS011;67811;42.656;23.394;2023-04-03T04:05:42;0.88;;;0.88;;
77722;SDS011;67811;42.656;23.394;2023-04-03T04:08:13;3.13;;;1.23;;
77722;SDS011;67811;42.656;23.394;2023-04-03T04:10:43;2.83;;;1.38;;
77722;SDS011;67811;42.656;23.394;2023-04-03T04:13:14;1.23;;;0.93;;
77722;SDS011;67811;42.656;23.394;2023-04-03T04:15:44;2.03;;;1.20;;
77722;SDS011;67811;42.656;23.394;2023-04-03T04:18:17;1.52;;;1.02;;
77722;SDS011;67811;42.656;23.394;2023-04-03T04:20:47;1.75;;;1.05;;
77722;SDS011;67811;42.656;23.394;2023-04-03T04:23:18;1.15;;;1.05;;
77722;SDS011;67811;42.656;23.394;2023-04-03T04:25:49;3.03;;;1.20;;
77722;SDS011;67811;42.656;23.394;2023-04-03T04:28:20;1.17;;;0.73;;
77722;SDS011;67811;42.656;23.394;2023-04-03T04:30:50;1.17;;;1.10;;
77722;SDS011;67811;42.656;23.394;2023-04-03T04:33:22;2.25;;;1.10;;
77722;SDS011;67811;42.656;23.394;2023-04-03T04:35:53;0.50;;;0.50;;
77722;SDS011;67811;42.656;23.394;2023-04-03T04:38:24;0.70;;;0.70;;
77722;SDS011;67811;42.656;23.394;2023-04-03T04:40:55;1.55;;;0.77;;
77722;SDS011;67811;42.656;23.394;2023-04-03T04:43:25;1.00;;;0.75;;
77722;SDS011;67811;42.656;23.394;2023-04-03T04:46:02;1.48;;;0.70;;
77722;SDS011;67811;42.656;23.394;2023-04-03T04:48:35;0.95;;;0.90;;
77722;SDS011;67811;42.656;23.394;2023-04-03T04:51:06;1.65;;;0.82;;
77722;SDS011;67811;42.656;23.394;2023-04-03T04:53:37;2.17;;;0.98;;
77722;SDS011;67811;42.656;23.394;2023-04-03T04:56:08;1.13;;;0.88;;
77722;SDS011;67811;42.656;23.394;2023-04-03T04:58:39;1.27;;;1.17;;
77722;SDS011;67811;42.656;23.394;2023-04-03T05:01:10;2.15;;;1.95;;
77722;SDS011;67811;42.656;23.394;2023-04-03T05:03:42;4.63;;;1.25;;
77722;SDS011;67811;42.656;23.394;2023-04-03T05:06:13;2.42;;;1.48;;
77722;SDS011;67811;42.656;23.394;2023-04-03T05:08:43;1.60;;;1.50;;
77722;SDS011;67811;42.656;23.394;2023-04-03T05:11:14;3.13;;;2.10;;
77722;SDS011;67811;42.656;23.394;2023-04-03T05:13:44;1.75;;;1.40;;
77722;SDS011;67811;42.656;23.394;2023-04-03T05:16:15;0.95;;;0.85;;
77722;SDS011;67811;42.656;23.394;2023-04-03T05:18:47;2.15;;;1.25;;
77722;SDS011;67811;42.656;23.394;2023-04-03T05:21:18;1.35;;;1.25;;
77722;SDS011;67811;42.656;23.394;2023-04-03T05:23:49;1.48;;;0.88;;
77722;SDS011;67811;42.656;23.394;2023-04-03T05:26:19;0.93;;;0.82;;
77722;SDS011;67811;42.656;23.394;2023-04-03T05:28:50;1.10;;;0.65;;
77722;SDS011;67811;42.656;23.394;2023-04-03T05:31:20;0.90;;;0.75;;
77722;SDS011;67811;42.656;23.394;2023-04-03T05:33:53;2.50;;;0.90;;
77722;SDS011;67811;42.656;23.394;2023-04-03T05:36:24;1.02;;;1.02;;
77722;SDS011;67811;42.656;23.394;2023-04-03T05:38:54;1.20;;;0.80;;
77722;SDS011;67811;42.656;23.394;2023-04-03T05:41:25;2.50;;;0.93;;
77722;SDS011;67811;42.656;23.394;2023-04-03T05:43:55;0.80;;;0.80;;
77722;SDS011;67811;42.656;23.394;2023-04-03T05:46:26;1.63;;;1.05;;
77722;SDS011;67811;42.656;23.394;2023-04-03T05:48:58;2.50;;;1.92;;
77722;SDS011;67811;42.656;23.394;2023-04-03T05:51:30;1.13;;;1.00;;
77722;SDS011;67811;42.656;23.394;2023-04-03T05:54:06;1.48;;;1.38;;
77722;SDS011;67811;42.656;23.394;2023-04-03T05:56:41;3.00;;;1.60;;
77722;SDS011;67811;42.656;23.394;2023-04-03T05:59:12;5.20;;;2.45;;
77722;SDS011;67811;42.656;23.394;2023-04-03T06:01:42;8.55;;;1.20;;
77722;SDS011;67811;42.656;23.394;2023-04-03T06:04:14;4.00;;;2.30;;
77722;SDS011;67811;42.656;23.394;2023-04-03T06:06:45;2.40;;;1.75;;
77722;SDS011;67811;42.656;23.394;2023-04-03T06:09:19;3.10;;;1.38;;
77722;SDS011;67811;42.656;23.394;2023-04-03T06:11:50;2.60;;;2.28;;
77722;SDS011;67811;42.656;23.394;2023-04-03T06:14:21;4.85;;;1.77;;
77722;SDS011;67811;42.656;23.394;2023-04-03T06:16:52;1.60;;;1.50;;
77722;SDS011;67811;42.656;23.394;2023-04-03T06:19:24;2.50;;;1.50;;
77722;SDS011;67811;42.656;23.394;2023-04-03T06:21:55;6.20;;;3.17;;
77722;SDS011;67811;42.656;23.394;2023-04-03T06:24:26;4.13;;;3.40;;
77722;SDS011;67811;42.656;23.394;2023-04-03T06:26:57;10.63;;;4.53;;
77722;SDS011;67811;42.656;23.394;2023-04-03T06:29:28;4.30;;;3.78;;
77722;SDS011;67811;42.656;23.394;2023-04-03T06:31:58;6.15;;;3.35;;
77722;SDS011;67811;42.656;23.394;2023-04-03T06:34:30;4.43;;;3.03;;
77722;SDS011;67811;42.656;23.394;2023-04-03T06:37:01;4.50;;;3.55;;
77722;SDS011;67811;42.656;23.394;2023-04-03T06:39:31;12.05;;;6.25;;
77722;SDS011;67811;42.656;23.394;2023-04-03T06:42:02;11.07;;;6.78;;
77722;SDS011;67811;42.656;23.394;2023-04-03T06:44:33;9.93;;;5.70;;
77722;SDS011;67811;42.656;23.394;2023-04-03T06:47:03;12.68;;;6.10;;
77722;SDS011;67811;42.656;23.394;2023-04-03T06:49:35;10.25;;;6.47;;
77722;SDS011;67811;42.656;23.394;2023-04-03T06:52:06;7.57;;;6.45;;
77722;SDS011;67811;42.656;23.394;2023-04-03T06:54:37;10.82;;;7.32;;
77722;SDS011;67811;42.656;23.394;2023-04-03T06:57:08;9.30;;;5.55;;
77722;SDS011;67811;42.656;23.394;2023-04-03T06:59:39;9.15;;;5.10;;
77722;SDS011;67811;42.656;23.394;2023-04-03T07:02:11;9.40;;;6.05;;
77722;SDS011;67811;42.656;23.394;2023-04-03T07:04:43;13.98;;;6.88;;
77722;SDS011;67811;42.656;23.394;2023-04-03T07:07:13;8.45;;;5.82;;
77722;SDS011;67811;42.656;23.394;2023-04-03T07:09:44;8.73;;;4.68;;
77722;SDS011;67811;42.656;23.394;2023-04-03T07:12:15;12.52;;;5.28;;
77722;SDS011;67811;42.656;23.394;2023-04-03T07:14:45;10.00;;;5.57;;
77722;SDS011;67811;42.656;23.394;2023-04-03T07:17:16;5.07;;;3.83;;
77722;SDS011;67811;42.656;23.394;2023-04-03T07:19:48;6.38;;;4.22;;
77722;SDS011;67811;42.656;23.394;2023-04-03T07:22:19;7.65;;;5.70;;
77722;SDS011;67811;42.656;23.394;2023-04-03T07:24:49;11.60;;;5.57;;
77722;SDS011;67811;42.656;23.394;2023-04-03T07:27:20;7.53;;;5.07;;
77722;SDS011;67811;42.656;23.394;2023-04-03T07:29:51;11.88;;;6.85;;
77722;SDS011;67811;42.656;23.394;2023-04-03T07:32:21;8.38;;;4.93;;
77722;SDS011;67811;42.656;23.394;2023-04-03T07:34:53;7.53;;;4.93;;
77722;SDS011;67811;42.656;23.394;2023-04-03T07:37:24;9.73;;;5.75;;
77722;SDS011;67811;42.656;23.394;2023-04-03T07:39:54;9.77;;;5.32;;
77722;SDS011;67811;42.656;23.394;2023-04-03T07:42:25;8.52;;;5.97;;
77722;SDS011;67811;42.656;23.394;2023-04-03T07:44:55;15.65;;;8.18;;
77722;SDS011;67811;42.656;23.394;2023-04-03T07:47:26;12.52;;;5.45;;
77722;SDS011;67811;42.656;23.394;2023-04-03T07:49:58;12.95;;;6.78;;
77722;SDS011;67811;42.656;23.394;2023-04-03T07:52:29;9.60;;;7.03;;
77722;SDS011;67811;42.656;23.394;2023-04-03T07:54:59;11.07;;;6.38;;
77722;SDS011;67811;42.656;23.394;2023-04-03T07:57:30;20.33;;;7.80;;
77722;SDS011;67811;42.656;23.394;2023-04-03T08:00:01;9.63;;;6.10;;
77722;SDS011;67811;42.656;23.394;2023-04-03T08:02:31;8.68;;;5.43;;
77722;SDS011;67811;42.656;23.394;2023-04-03T08:05:04;7.22;;;5.18;;
77722;SDS011;67811;42.656;23.394;2023-04-03T08:07:36;10.23;;;6.20;;
77722;SDS011;67811;42.656;23.394;2023-04-03T08:10:07;14.45;;;6.60;;
77722;SDS011;67811;42.656;23.394;2023-04-03T08:12:38;8.52;;;5.03;;
77722;SDS011;67811;42.656;23.394;2023-04-03T08:15:09;7.57;;;5.82;;
77722;SDS011;67811;42.656;23.394;2023-04-03T08:17:40;7.15;;;5.97;;
77722;SDS011;67811;42.656;23.394;2023-04-03T08:20:12;9.68;;;6.47;;
77722;SDS011;67811;42.656;23.394;2023-04-03T08:22:42;13.85;;;6.30;;
77722;SDS011;67811;42.656;23.394;2023-04-03T08:25:13;13.00;;;7.93;;
77722;SDS011;67811;42.656;23.394;2023-04-03T08:27:44;13.80;;;7.35;;
77722;SDS011;67811;42.656;23.394;2023-04-03T08:30:14;8.05;;;7.18;;
77722;SDS011;67811;42.656;23.394;2023-04-03T08:32:45;8.02;;;5.05;;
77722;SDS011;67811;42.656;23.394;2023-04-03T08:35:17;10.65;;;6.22;;
77722;SDS011;67811;42.656;23.394;2023-04-03T08:37:48;7.03;;;4.72;;
77722;SDS011;67811;42.656;23.394;2023-04-03T08:40:19;15.88;;;5.68;;
77722;SDS011;67811;42.656;23.394;2023-04-03T08:42:52;10.75;;;5.50;;
77722;SDS011;67811;42.656;23.394;2023-04-03T08:45:33;11.60;;;5.53;;
77722;SDS011;67811;42.656;23.394;2023-04-03T08:48:12;6.18;;;5.20;;
77722;SDS011;67811;42.656;23.394;2023-04-03T08:50:48;6.65;;;4.72;;
77722;SDS011;67811;42.656;23.394;2023-04-03T08:53:24;8.95;;;5.32;;
77722;SDS011;67811;42.656;23.394;2023-04-03T08:55:58;8.77;;;5.85;;
77722;SDS011;67811;42.656;23.394;2023-04-03T08:58:33;11.63;;;6.20;;
77722;SDS011;67811;42.656;23.394;2023-04-03T09:01:17;8.68;;;5.43;;
77722;SDS011;67811;42.656;23.394;2023-04-03T09:03:49;5.97;;;4.40;;
77722;SDS011;67811;42.656;23.394;2023-04-03T09:06:22;8.40;;;5.22;;
77722;SDS011;67811;42.656;23.394;2023-04-03T09:08:59;6.13;;;4.88;;
77722;SDS011;67811;42.656;23.394;2023-04-03T09:11:41;8.73;;;4.03;;
77722;SDS011;67811;42.656;23.394;2023-04-03T09:14:18;5.63;;;4.05;;
77722;SDS011;67811;42.656;23.394;2023-04-03T09:16:56;5.78;;;3.67;;
77722;SDS011;67811;42.656;23.394;2023-04-03T09:19:32;4.15;;;3.75;;
77722;SDS011;67811;42.656;23.394;2023-04-03T09:22:13;6.82;;;3.67;;
77722;SDS011;67811;42.656;23.394;2023-04-03T09:24:49;6.28;;;4.38;;
77722;SDS011;67811;42.656;23.394;2023-04-03T09:27:24;7.40;;;4.80;;
77722;SDS011;67811;42.656;23.394;2023-04-03T09:29:55;9.30;;;3.72;;
77722;SDS011;67811;42.656;23.394;2023-04-03T09:32:27;6.95;;;4.18;;
77722;SDS011;67811;42.656;23.394;2023-04-03T09:35:00;5.22;;;3.95;;
77722;SDS011;67811;42.656;23.394;2023-04-03T09:37:38;12.10;;;4.88;;
77722;SDS011;67811;42.656;23.394;2023-04-03T09:40:30;8.27;;;3.97;;
77722;SDS011;67811;42.656;23.394;2023-04-03T09:43:16;3.75;;;2.92;;
77722;SDS011;67811;42.656;23.394;2023-04-03T09:45:53;8.30;;;3.75;;
77722;SDS011;67811;42.656;23.394;2023-04-03T09:48:25;7.32;;;3.42;;
77722;SDS011;67811;42.656;23.394;2023-04-03T09:50:57;7.28;;;4.45;;
77722;SDS011;67811;42.656;23.394;2023-04-03T09:53:32;8.43;;;4.85;;
77722;SDS011;67811;42.656;23.394;2023-04-03T09:56:09;4.18;;;3.20;;
77722;SDS011;67811;42.656;23.394;2023-04-03T09:58:51;6.20;;;3.67;;
77722;SDS011;67811;42.656;23.394;2023-04-03T10:01:36;5.20;;;2.78;;
77722;SDS011;67811;42.656;23.394;2023-04-03T10:04:09;4.32;;;2.38;;
77722;SDS011;67811;42.656;23.394;2023-04-03T10:06:41;4.97;;;2.90;;
77722;SDS011;67811;42.656;23.394;2023-04-03T10:09:17;5.25;;;3.15;;
77722;SDS011;67811;42.656;23.394;2023-04-03T10:12:00;4.40;;;2.67;;
77722;SDS011;67811;42.656;23.394;2023-04-03T10:14:33;4.03;;;2.53;;
77722;SDS011;67811;42.656;23.394;2023-04-03T10:17:10;5.15;;;3.45;;
77722;SDS011;67811;42.656;23.394;2023-04-03T10:19:48;3.30;;;3.00;;
77722;SDS011;67811;42.656;23.394;2023-04-03T10:22:27;6.07;;;3.83;;
77722;SDS011;67811;42.656;23.394;2023-04-03T10:25:10;4.47;;;2.55;;
77722;SDS011;67811;42.656;23.394;2023-04-03T10:27:49;6.28;;;3.05;;
77722;SDS011;67811;42.656;23.394;2023-04-03T10:30:30;4.45;;;2.58;;
77722;SDS011;67811;42.656;23.394;2023-04-03T10:33:09;6.60;;;3.08;;
77722;SDS011;67811;42.656;23.394;2023-04-03T10:35:51;3.10;;;2.60;;
77722;SDS011;67811;42.656;23.394;2023-04-03T10:38:33;4.93;;;2.15;;
77722;SDS011;67811;42.656;23.394;2023-04-03T10:41:16;2.35;;;2.05;;
77722;SDS011;67811;42.656;23.394;2023-04-03T10:43:53;2.92;;;2.17;;
77722;SDS011;67811;42.656;23.394;2023-04-03T10:46:35;6.72;;;2.30;;
77722;SDS011;67811;42.656;23.394;2023-04-03T10:52:06;5.43;;;2.55;;
77722;SDS011;67811;42.656;23.394;2023-04-03T10:54:43;6.25;;;2.10;;
77722;SDS011;67811;42.656;23.394;2023-04-03T10:57:19;4.00;;;2.58;;
77722;SDS011;67811;42.656;23.394;2023-04-03T10:59:55;1.60;;;1.15;;
77722;SDS011;67811;42.656;23.394;2023-04-03T11:02:28;2.63;;;1.48;;
77722;SDS011;67811;42.656;23.394;2023-04-03T11:05:03;3.88;;;1.80;;
77722;SDS011;67811;42.656;23.394;2023-04-03T11:07:38;3.38;;;1.27;;
77722;SDS011;67811;42.656;23.394;2023-04-03T11:10:10;2.95;;;1.75;;
77722;SDS011;67811;42.656;23.394;2023-04-03T11:12:46;2.38;;;1.70;;
77722;SDS011;67811;42.656;23.394;2023-04-03T11:15:21;3.10;;;1.83;;
77722;SDS011;67811;42.656;23.394;2023-04-03T11:17:54;3.92;;;1.55;;
77722;SDS011;67811;42.656;23.394;2023-04-03T11:20:29;2.22;;;2.03;;
77722;SDS011;67811;42.656;23.394;2023-04-03T11:23:02;2.42;;;1.52;;
77722;SDS011;67811;42.656;23.394;2023-04-03T11:25:35;2.40;;;1.70;;
77722;SDS011;67811;42.656;23.394;2023-04-03T11:28:11;2.97;;;2.00;;
77722;SDS011;67811;42.656;23.394;2023-04-03T11:30:44;1.65;;;1.55;;
77722;SDS011;67811;42.656;23.394;2023-04-03T11:33:24;2.65;;;2.03;;
77722;SDS011;67811;42.656;23.394;2023-04-03T11:36:07;3.20;;;2.30;;
77722;SDS011;67811;42.656;23.394;2023-04-03T11:38:41;1.33;;;1.23;;
77722;SDS011;67811;42.656;23.394;2023-04-03T11:41:15;4.18;;;1.95;;
77722;SDS011;67811;42.656;23.394;2023-04-03T11:43:56;2.78;;;2.08;;
77722;SDS011;67811;42.656;23.394;2023-04-03T11:55:42;1.65;;;1.55;;
77722;SDS011;67811;42.656;23.394;2023-04-03T11:58:23;1.75;;;1.52;;
77722;SDS011;67811;42.656;23.394;2023-04-03T12:01:00;2.70;;;1.45;;
77722;SDS011;67811;42.656;23.394;2023-04-03T12:12:55;2.92;;;1.73;;
77722;SDS011;67811;42.656;23.394;2023-04-03T12:24:39;1.92;;;1.23;;
77722;SDS011;67811;42.656;23.394;2023-04-03T12:30:24;5.45;;;1.65;;
77722;SDS011;67811;42.656;23.394;2023-04-03T12:33:02;1.85;;;1.63;;
77722;SDS011;67811;42.656;23.394;2023-04-03T12:35:49;1.30;;;1.20;;
77722;SDS011;67811;42.656;23.394;2023-04-03T12:38:37;2.22;;;1.63;;
77722;SDS011;67811;42.656;23.394;2023-04-03T12:41:23;1.73;;;1.35;;
77722;SDS011;67811;42.656;23.394;2023-04-03T12:44:13;2.15;;;1.67;;
77722;SDS011;67811;42.656;23.394;2023-04-03T12:47:01;2.00;;;1.73;;
77722;SDS011;67811;42.656;23.394;2023-04-03T12:49:41;2.97;;;2.63;;
77722;SDS011;67811;42.656;23.394;2023-04-03T12:52:18;2.33;;;1.90;;
77722;SDS011;67811;42.656;23.394;2023-04-03T12:54:56;2.60;;;1.55;;
77722;SDS011;67811;42.656;23.394;2023-04-03T12:57:30;5.45;;;2.13;;
77722;SDS011;67811;42.656;23.394;2023-04-03T13:00:01;4.60;;;2.10;;
77722;SDS011;67811;42.656;23.394;2023-04-03T13:02:49;3.95;;;2.30;;
77722;SDS011;67811;42.656;23.394;2023-04-03T13:05:20;3.17;;;2.15;;
77722;SDS011;67811;42.656;23.394;2023-04-03T13:07:54;11.00;;;3.80;;
77722;SDS011;67811;42.656;23.394;2023-04-03T13:10:28;8.10;;;4.50;;
77722;SDS011;67811;42.656;23.394;2023-04-03T13:13:06;7.90;;;4.30;;
77722;SDS011;67811;42.656;23.394;2023-04-03T13:15:42;2.55;;;2.30;;
77722;SDS011;67811;42.656;23.394;2023-04-03T13:18:26;8.02;;;3.10;;
77722;SDS011;67811;42.656;23.394;2023-04-03T13:21:00;3.25;;;3.00;;
77722;SDS011;67811;42.656;23.394;2023-04-03T13:23:36;8.35;;;3.15;;
77722;SDS011;67811;42.656;23.394;2023-04-03T13:26:10;5.22;;;3.75;;
77722;SDS011;67811;42.656;23.394;2023-04-03T13:28:41;4.35;;;3.15;;
77722;SDS011;67811;42.656;23.394;2023-04-03T13:31:18;3.03;;;2.63;;
77722;SDS011;67811;42.656;23.394;2023-04-03T13:33:54;2.97;;;2.55;;
77722;SDS011;67811;42.656;23.394;2023-04-03T13:36:27;4.75;;;3.63;;
77722;SDS011;67811;42.656;23.394;2023-04-03T13:39:04;5.65;;;2.78;;
77722;SDS011;67811;42.656;23.394;2023-04-03T13:41:37;5.28;;;3.90;;
77722;SDS011;67811;42.656;23.394;2023-04-03T13:44:16;4.38;;;3.08;;
77722;SDS011;67811;42.656;23.394;2023-04-03T13:46:55;4.30;;;3.78;;
77722;SDS011;67811;42.656;23.394;2023-04-03T13:49:31;6.60;;;2.83;;
77722;SDS011;67811;42.656;23.394;2023-04-03T13:52:21;3.22;;;2.78;;
77722;SDS011;67811;42.656;23.394;2023-04-03T13:54:55;3.53;;;3.13;;
77722;SDS011;67811;42.656;23.394;2023-04-03T13:57:28;3.88;;;2.45;;
77722;SDS011;67811;42.656;23.394;2023-04-03T13:59:58;3.28;;;2.78;;
77722;SDS011;67811;42.656;23.394;2023-04-03T14:02:30;3.70;;;2.63;;
77722;SDS011;67811;42.656;23.394;2023-04-03T14:05:03;3.08;;;2.20;;
77722;SDS011;67811;42.656;23.394;2023-04-03T14:07:34;4.55;;;3.42;;
77722;SDS011;67811;42.656;23.394;2023-04-03T14:10:06;3.10;;;2.60;;
77722;SDS011;67811;42.656;23.394;2023-04-03T14:12:38;3.10;;;2.53;;
77722;SDS011;67811;42.656;23.394;2023-04-03T14:15:15;3.58;;;2.35;;
77722;SDS011;67811;42.656;23.394;2023-04-03T14:20:21;3.00;;;2.53;;
77722;SDS011;67811;42.656;23.394;2023-04-03T14:22:53;3.90;;;3.22;;
77722;SDS011;67811;42.656;23.394;2023-04-03T14:25:25;2.17;;;1.95;;
77722;SDS011;67811;42.656;23.394;2023-04-03T14:27:56;1.67;;;1.35;;
77722;SDS011;67811;42.656;23.394;2023-04-03T14:30:27;3.72;;;2.88;;
77722;SDS011;67811;42.656;23.394;2023-04-03T14:33:02;6.03;;;2.87;;
77722;SDS011;67811;42.656;23.394;2023-04-03T14:35:32;3.38;;;1.75;;
77722;SDS011;67811;42.656;23.394;2023-04-03T14:38:05;5.93;;;2.28;;
77722;SDS011;67811;42.656;23.394;2023-04-03T14:40:43;3.20;;;2.90;;
77722;SDS011;67811;42.656;23.394;2023-04-03T14:43:14;4.25;;;3.03;;
77722;SDS011;67811;42.656;23.394;2023-04-03T14:45:44;2.20;;;2.00;;
77722;SDS011;67811;42.656;23.394;2023-04-03T14:48:16;3.20;;;2.80;;
77722;SDS011;67811;42.656;23.394;2023-04-03T14:50:50;3.40;;;2.38;;
77722;SDS011;67811;42.656;23.394;2023-04-03T14:53:21;3.13;;;1.95;;
77722;SDS011;67811;42.656;23.394;2023-04-03T14:55:53;2.92;;;2.53;;
77722;SDS011;67811;42.656;23.394;2023-04-03T14:58:24;3.50;;;1.88;;
77722;SDS011;67811;42.656;23.394;2023-04-03T15:00:54;2.72;;;2.22;;
77722;SDS011;67811;42.656;23.394;2023-04-03T15:03:25;7.82;;;1.83;;
77722;SDS011;67811;42.656;23.394;2023-04-03T15:05:55;2.75;;;1.95;;
77722;SDS011;67811;42.656;23.394;2023-04-03T15:08:26;2.58;;;2.08;;
77722;SDS011;67811;42.656;23.394;2023-04-03T15:10:59;3.70;;;2.13;;
77722;SDS011;67811;42.656;23.394;2023-04-03T15:13:30;1.38;;;1.10;;
77722;SDS011;67811;42.656;23.394;2023-04-03T15:16:00;2.55;;;1.83;;
77722;SDS011;67811;42.656;23.394;2023-04-03T15:18:32;3.05;;;2.10;;
77722;SDS011;67811;42.656;23.394;2023-04-03T15:21:07;2.53;;;1.95;;
77722;SDS011;67811;42.656;23.394;2023-04-03T15:23:38;4.38;;;2.70;;
77722;SDS011;67811;42.656;23.394;2023-04-03T15:26:10;2.55;;;1.80;;
77722;SDS011;67811;42.656;23.394;2023-04-03T15:28:41;2.95;;;1.85;;
77722;SDS011;67811;42.656;23.394;2023-04-03T15:31:13;2.33;;;1.92;;
77722;SDS011;67811;42.656;23.394;2023-04-03T15:33:43;2.80;;;1.92;;
77722;SDS011;67811;42.656;23.394;2023-04-03T15:36:14;6.50;;;2.03;;
77722;SDS011;67811;42.656;23.394;2023-04-03T15:38:44;1.70;;;1.40;;
77722;SDS011;67811;42.656;23.394;2023-04-03T15:41:16;1.45;;;1.33;;
77722;SDS011;67811;42.656;23.394;2023-04-03T15:43:47;2.60;;;1.63;;
77722;SDS011;67811;42.656;23.394;2023-04-03T15:46:17;3.53;;;2.25;;